FPO weather

Grand Bahama International Airport
Freeport, Freeport, Bahamas

Public forecast

Using degrees Celsius for public forecast. Weather courtesy of forecast.io.

Current aviation weather report (METAR) for Grand Bahama International Airport

Retrieved 2020/01/17 18:00 UTC (16 minutes ago):

MYGF 171800Z 09018KT 9999 SCT020 BKN250 25/19 A3027

Aviation forecast (TAF) for Grand Bahama International Airport

Retrieved 2020/01/17 18:18 UTC (0 seconds ago):

TAF MYGF 171630Z 1718/1818 08018KT 9999 BKN018 BECMG 1800/1802 06020G30KT FEW025 BKN040